createdAt,value
2019-02-06T00:01:24.199Z,97901.44
2019-02-06T00:02:59.391Z,97904.47
2019-02-06T00:04:34.906Z,97909.05
2019-02-06T00:06:10.503Z,97906.73
2019-02-06T00:07:46.086Z,97915.66
2019-02-06T00:09:21.780Z,97909.91
2019-02-06T00:10:57.123Z,97910.08
2019-02-06T00:12:32.633Z,97907.30
2019-02-06T00:14:07.878Z,97907.09
2019-02-06T00:15:44.807Z,97894.85
2019-02-06T00:17:21.525Z,97897.32
2019-02-06T00:18:57.124Z,97901.05
2019-02-06T00:20:33.140Z,97898.67
2019-02-06T00:22:09.201Z,97902.31
2019-02-06T00:23:47.160Z,97898.89
2019-02-06T00:25:23.206Z,97901.53
2019-02-06T00:26:59.142Z,97900.74
2019-02-06T00:28:34.356Z,97897.89
2019-02-06T00:30:12.509Z,97892.59
2019-02-06T00:31:48.212Z,97895.41
2019-02-06T00:33:25.933Z,97894.70
2019-02-06T00:35:03.322Z,97896.11
2019-02-06T00:36:39.554Z,97897.20
2019-02-06T00:38:15.459Z,97884.03
2019-02-06T00:39:51.000Z,97886.00
2019-02-06T00:41:27.112Z,97886.86
2019-02-06T00:43:02.617Z,97894.41
2019-02-06T00:44:38.084Z,97891.80
2019-02-06T00:46:13.630Z,97888.13
2019-02-06T00:48:00.127Z,97886.42
2019-02-06T00:49:37.013Z,97890.50
2019-02-06T00:51:12.519Z,97890.51
2019-02-06T00:52:49.423Z,97891.80
2019-02-06T00:54:24.851Z,97890.11
2019-02-06T00:56:00.517Z,97891.93
2019-02-06T00:57:36.359Z,97902.39
2019-02-06T00:59:15.464Z,97908.68
2019-02-06T01:00:51.513Z,97908.97
2019-02-06T01:02:26.818Z,97905.28
2019-02-06T01:04:04.123Z,97903.16
2019-02-06T01:05:39.403Z,97903.06
2019-02-06T01:07:16.451Z,97904.48
2019-02-06T01:08:51.943Z,97899.16
2019-02-06T01:10:38.095Z,97892.14
2019-02-06T01:12:13.497Z,97892.05
2019-02-06T01:13:49.767Z,97892.38
2019-02-06T01:15:25.050Z,97895.30
2019-02-06T01:17:05.008Z,97888.45
2019-02-06T01:18:43.640Z,97889.14
2019-02-06T01:20:19.690Z,97891.52
2019-02-06T01:21:55.737Z,97895.65
2019-02-06T01:23:30.983Z,97891.61
2019-02-06T01:25:10.320Z,97885.98
2019-02-06T01:26:45.674Z,97885.25
2019-02-06T01:28:23.225Z,97881.29
2019-02-06T01:29:58.477Z,97880.14
2019-02-06T01:31:35.164Z,97884.18
2019-02-06T01:33:13.967Z,97878.64
2019-02-06T01:34:49.639Z,97876.95
2019-02-06T01:36:29.970Z,97877.38
2019-02-06T01:38:14.460Z,97888.66
2019-02-06T01:39:49.800Z,97881.30
2019-02-06T01:41:25.832Z,97881.00
2019-02-06T01:43:01.532Z,97882.56
2019-02-06T01:44:36.845Z,97884.34
2019-02-06T01:46:16.300Z,97888.10
2019-02-06T01:47:57.530Z,97894.56
2019-02-06T01:49:35.654Z,97886.56
2019-02-06T01:51:11.316Z,97883.56
2019-02-06T01:52:47.029Z,97890.23
2019-02-06T01:54:25.716Z,97882.75
2019-02-06T01:56:01.325Z,97883.22
2019-02-06T01:57:36.767Z,97880.04
2019-02-06T01:59:16.643Z,97878.60
2019-02-06T02:00:52.733Z,97878.17
2019-02-06T02:02:29.775Z,97880.30
2019-02-06T02:04:06.319Z,97880.70
2019-02-06T02:05:41.407Z,97876.11
2019-02-06T02:07:17.421Z,97876.05
2019-02-06T02:09:03.189Z,97879.73
2019-02-06T02:10:38.950Z,97866.59
2019-02-06T02:12:15.222Z,97878.73
2019-02-06T02:13:52.064Z,97874.45
2019-02-06T02:15:27.509Z,97874.80
2019-02-06T02:17:06.417Z,97871.33
2019-02-06T02:18:44.604Z,97868.17
2019-02-06T02:20:29.785Z,97873.23
2019-02-06T02:22:11.458Z,97874.27
2019-02-06T02:23:49.138Z,97877.61
2019-02-06T02:25:29.708Z,97882.30
2019-02-06T02:27:08.193Z,97880.86
2019-02-06T02:28:43.978Z,97876.27
2019-02-06T02:30:30.996Z,97877.61
2019-02-06T02:32:08.220Z,97870.48
2019-02-06T02:33:43.827Z,97871.27
2019-02-06T02:35:24.946Z,97864.92
2019-02-06T02:37:00.544Z,97860.67
2019-02-06T02:38:36.622Z,97861.80
2019-02-06T02:40:12.028Z,97855.36
2019-02-06T02:41:47.221Z,97856.61
2019-02-06T02:43:25.334Z,97851.71
2019-02-06T02:45:12.626Z,97853.24
2019-02-06T02:46:48.113Z,97852.71
2019-02-06T02:48:27.791Z,97845.38
2019-02-06T02:50:03.406Z,97843.19
2019-02-06T02:51:38.549Z,97842.34
2019-02-06T02:53:29.874Z,97834.44
2019-02-06T02:55:06.861Z,97834.78
2019-02-06T02:56:42.028Z,97829.36
2019-02-06T02:58:23.725Z,97828.67
2019-02-06T02:59:59.160Z,97832.83
2019-02-06T03:02:02.375Z,97829.99
2019-02-06T03:03:44.325Z,97828.18
2019-02-06T03:05:26.539Z,97819.14
2019-02-06T03:07:02.957Z,97822.61
2019-02-06T03:08:39.179Z,97821.91
2019-02-06T03:10:15.265Z,97822.52
2019-02-06T03:11:53.079Z,97827.13
2019-02-06T03:13:33.611Z,97822.17
2019-02-06T03:15:13.199Z,97823.82
2019-02-06T03:16:49.007Z,97825.84
2019-02-06T03:18:25.417Z,97826.89
2019-02-06T03:20:01.148Z,97818.14
2019-02-06T03:21:36.279Z,97807.06
2019-02-06T03:23:12.822Z,97811.59
2019-02-06T03:24:51.685Z,97808.69
2019-02-06T03:26:26.888Z,97806.97
2019-02-06T03:28:02.789Z,97802.89
2019-02-06T03:29:40.790Z,97802.63
2019-02-06T03:31:32.148Z,97789.54
2019-02-06T03:33:06.327Z,97794.91
2019-02-06T03:34:42.244Z,97792.02
2019-02-06T03:36:26.250Z,97790.58
2019-02-06T03:38:09.173Z,97790.22
2019-02-06T03:39:46.233Z,97785.20
2019-02-06T03:41:28.234Z,97782.87
2019-02-06T03:43:03.572Z,97784.08
2019-02-06T03:44:39.286Z,97781.95
2019-02-06T03:46:17.589Z,97777.36
2019-02-06T03:47:54.089Z,97781.95
2019-02-06T03:49:32.639Z,97789.31
2019-02-06T03:51:10.679Z,97786.89
2019-02-06T03:52:46.422Z,97785.13
2019-02-06T03:54:21.495Z,97773.06
2019-02-06T03:55:56.965Z,97777.70
2019-02-06T03:57:33.112Z,97769.16
2019-02-06T03:59:11.790Z,97775.87
2019-02-06T04:00:47.654Z,97771.77
2019-02-06T04:02:25.496Z,97778.05
2019-02-06T04:04:00.164Z,97771.63
2019-02-06T04:05:35.679Z,97761.66
2019-02-06T04:07:13.378Z,97761.09
2019-02-06T04:08:54.936Z,97767.08
2019-02-06T04:10:29.977Z,97766.39
2019-02-06T04:12:05.743Z,97770.64
2019-02-06T04:13:41.326Z,97764.56
2019-02-06T04:15:28.032Z,97761.52
2019-02-06T04:17:11.373Z,97763.48
2019-02-06T04:18:49.985Z,97775.36
2019-02-06T04:20:25.278Z,97776.56
2019-02-06T04:22:00.877Z,97775.71
2019-02-06T04:23:36.624Z,97768.37
2019-02-06T04:25:12.321Z,97771.28
2019-02-06T04:26:51.401Z,97770.20
2019-02-06T04:28:30.443Z,97770.33
2019-02-06T04:30:08.386Z,97766.52
2019-02-06T04:31:45.884Z,97765.91
2019-02-06T04:33:24.685Z,97767.17
2019-02-06T04:35:00.385Z,97765.61
2019-02-06T04:36:38.726Z,97772.68
2019-02-06T04:38:25.033Z,97764.34
2019-02-06T04:40:00.330Z,97768.94
2019-02-06T04:41:35.446Z,97766.69
2019-02-06T04:43:10.611Z,97765.69
2019-02-06T04:44:45.846Z,97765.69
2019-02-06T04:46:20.929Z,97763.48
2019-02-06T04:47:56.025Z,97773.67
2019-02-06T04:49:31.447Z,97759.67
2019-02-06T04:51:07.393Z,97751.13
2019-02-06T04:52:42.644Z,97752.81
2019-02-06T04:54:21.758Z,97753.24
2019-02-06T04:55:57.189Z,97754.08
2019-02-06T04:57:32.632Z,97752.95
2019-02-06T04:59:07.796Z,97756.20
2019-02-06T05:00:45.381Z,97755.20
2019-02-06T05:02:23.277Z,97752.37
2019-02-06T05:03:58.479Z,97752.46
2019-02-06T05:05:34.057Z,97753.02
2019-02-06T05:07:18.850Z,97756.33
2019-02-06T05:08:46.344Z,97751.25
2019-02-06T05:10:22.696Z,97754.23
2019-02-06T05:11:57.957Z,97751.77
2019-02-06T05:13:33.523Z,97751.60
2019-02-06T05:15:08.990Z,97755.80
2019-02-06T05:16:44.200Z,97757.33
2019-02-06T05:18:19.626Z,97759.97
2019-02-06T05:19:55.271Z,97756.06
2019-02-06T05:21:31.306Z,97753.16
2019-02-06T05:23:06.645Z,97758.54
2019-02-06T05:24:46.456Z,97766.91
2019-02-06T05:26:21.626Z,97760.61
2019-02-06T05:27:59.074Z,97757.98
2019-02-06T05:29:34.615Z,97753.67
2019-02-06T05:31:09.909Z,97753.52
2019-02-06T05:32:45.433Z,97755.94
2019-02-06T05:34:20.858Z,97743.48
2019-02-06T05:35:59.233Z,97737.89
2019-02-06T05:37:34.388Z,97733.52
2019-02-06T05:39:10.194Z,97743.75
2019-02-06T05:40:45.398Z,97748.35
2019-02-06T05:42:20.857Z,97738.89
2019-02-06T05:43:56.352Z,97736.25
2019-02-06T05:45:32.424Z,97743.97
2019-02-06T05:47:10.841Z,97738.11
2019-02-06T05:48:50.389Z,97739.29
2019-02-06T05:50:30.085Z,97739.16
2019-02-06T05:52:07.323Z,97740.63
2019-02-06T05:53:42.693Z,97735.20
2019-02-06T05:55:18.225Z,97736.55
2019-02-06T05:56:53.867Z,97752.68
2019-02-06T05:58:29.187Z,97749.99
2019-02-06T06:00:10.290Z,97745.87
2019-02-06T06:01:45.834Z,97749.00
2019-02-06T06:03:21.594Z,97761.74
2019-02-06T06:04:59.798Z,97757.20
2019-02-06T06:06:35.075Z,97805.11
2019-02-06T06:08:10.293Z,97803.33
2019-02-06T06:09:45.422Z,97800.77
2019-02-06T06:11:21.129Z,97803.55
2019-02-06T06:12:57.772Z,97800.64
2019-02-06T06:14:37.236Z,97802.12
2019-02-06T06:16:27.990Z,97798.66
2019-02-06T06:18:14.375Z,97796.69
2019-02-06T06:19:56.582Z,97795.70
2019-02-06T06:21:39.977Z,97792.48
2019-02-06T06:23:24.737Z,97786.55
2019-02-06T06:25:04.076Z,97788.63
2019-02-06T06:26:59.574Z,97784.03
2019-02-06T06:28:44.885Z,97777.58
2019-02-06T06:30:21.310Z,97777.36
2019-02-06T06:32:04.998Z,97771.63
2019-02-06T06:33:40.383Z,97769.72
2019-02-06T06:35:30.642Z,97771.84
2019-02-06T06:37:16.923Z,97771.06
2019-02-06T06:38:51.988Z,97769.34
2019-02-06T06:40:27.350Z,97766.59
2019-02-06T06:42:05.280Z,97764.39
2019-02-06T06:43:40.995Z,97764.78
2019-02-06T06:45:25.685Z,97750.55
2019-02-06T06:47:05.679Z,97743.97
2019-02-06T06:48:44.151Z,97752.89
2019-02-06T06:50:26.109Z,97751.87
2019-02-06T06:52:06.943Z,97755.34
2019-02-06T06:53:43.137Z,97744.18
2019-02-06T06:55:35.056Z,97745.58
2019-02-06T06:57:12.204Z,97743.89
2019-02-06T06:58:46.652Z,97742.19
2019-02-06T07:00:26.739Z,97736.47
2019-02-06T07:02:02.254Z,97728.54
2019-02-06T07:03:37.683Z,97730.83
2019-02-06T07:05:14.247Z,97723.89
2019-02-06T07:06:53.344Z,97727.63
2019-02-06T07:08:28.591Z,97730.09
2019-02-06T07:10:06.723Z,97720.98
2019-02-06T07:11:42.837Z,97723.94
2019-02-06T07:13:26.192Z,97726.36
2019-02-06T07:15:08.321Z,97727.84
2019-02-06T07:16:45.480Z,97728.53
2019-02-06T07:18:52.022Z,97737.03
2019-02-06T07:20:37.082Z,97737.52
2019-02-06T07:22:14.794Z,97735.69
2019-02-06T07:23:51.568Z,97734.08
2019-02-06T07:25:33.406Z,97731.44
2019-02-06T07:27:09.919Z,97729.26
2019-02-06T07:28:48.134Z,97730.45
2019-02-06T07:30:33.934Z,97724.16
2019-02-06T07:32:11.393Z,97721.06
2019-02-06T07:33:46.762Z,97720.06
2019-02-06T07:35:22.191Z,97726.00
2019-02-06T07:36:57.749Z,97729.04
2019-02-06T07:38:34.174Z,97730.67
2019-02-06T07:40:10.903Z,97728.34
2019-02-06T07:41:49.292Z,97727.77
2019-02-06T07:43:27.685Z,97723.17
2019-02-06T07:45:05.468Z,97731.72
2019-02-06T07:46:40.749Z,97722.69
2019-02-06T07:48:16.673Z,97725.52
2019-02-06T07:49:54.883Z,97728.42
2019-02-06T07:51:33.734Z,97733.49
2019-02-06T07:53:11.769Z,97735.05
2019-02-06T07:54:48.324Z,97737.74
2019-02-06T07:56:27.324Z,97728.39
2019-02-06T07:58:02.942Z,97728.52
2019-02-06T07:59:38.845Z,97730.22
2019-02-06T08:01:15.147Z,97728.58
2019-02-06T08:02:51.668Z,97729.78
2019-02-06T08:04:32.820Z,97724.61
2019-02-06T08:06:19.612Z,97726.08
2019-02-06T08:07:55.078Z,97723.98
2019-02-06T08:09:35.885Z,97720.41
2019-02-06T08:11:11.350Z,97717.76
2019-02-06T08:12:51.609Z,97716.69
2019-02-06T08:14:28.194Z,97714.04
2019-02-06T08:16:07.451Z,97704.43
2019-02-06T08:17:48.560Z,97709.31
2019-02-06T08:19:23.719Z,97695.02
2019-02-06T08:21:01.390Z,97696.42
2019-02-06T08:22:39.544Z,97692.88
2019-02-06T08:24:20.567Z,97675.51
2019-02-06T08:26:03.249Z,97670.42
2019-02-06T08:27:49.114Z,97669.21
2019-02-06T08:29:18.781Z,97663.72
2019-02-06T08:30:55.209Z,97650.87
2019-02-06T08:32:33.635Z,97646.05
2019-02-06T08:34:20.231Z,97645.53
2019-02-06T08:35:56.812Z,97656.07
2019-02-06T08:37:33.865Z,97646.27
2019-02-06T08:39:12.383Z,97638.50
2019-02-06T08:40:51.113Z,97642.23
2019-02-06T08:42:31.937Z,97630.60
2019-02-06T08:44:26.324Z,97627.39
2019-02-06T08:46:01.936Z,97621.92
2019-02-06T08:47:44.952Z,97609.50
2019-02-06T08:49:28.131Z,97613.42
2019-02-06T08:51:07.267Z,97608.27
2019-02-06T08:52:48.196Z,97602.16
2019-02-06T08:54:26.297Z,97599.33
2019-02-06T08:56:03.279Z,97589.63
2019-02-06T08:57:40.727Z,97582.47
2019-02-06T08:59:23.426Z,97579.86
2019-02-06T09:01:00.493Z,97587.06
2019-02-06T09:02:37.774Z,97577.19
2019-02-06T09:04:16.256Z,97578.98
2019-02-06T09:05:53.771Z,97575.33
2019-02-06T09:07:32.864Z,97572.84
2019-02-06T09:09:26.298Z,97571.11
2019-02-06T09:11:04.933Z,97573.44
2019-02-06T09:12:46.540Z,97571.75
2019-02-06T09:14:26.623Z,97576.41
2019-02-06T09:16:06.134Z,97575.41
2019-02-06T09:17:43.387Z,97578.29
2019-02-06T09:19:21.403Z,97574.68
2019-02-06T09:21:01.607Z,97575.08
2019-02-06T09:22:44.629Z,97567.38
2019-02-06T09:24:22.762Z,97566.62
2019-02-06T09:25:57.653Z,97560.83
2019-02-06T09:27:34.668Z,97565.30
2019-02-06T09:29:10.434Z,97555.06
2019-02-06T09:30:49.079Z,97554.70
2019-02-06T09:32:26.344Z,97548.50
2019-02-06T09:34:04.821Z,97552.58
2019-02-06T09:36:00.512Z,97556.45
2019-02-06T09:37:35.662Z,97550.23
2019-02-06T09:39:12.230Z,97552.36
2019-02-06T09:40:50.473Z,97547.11
2019-02-06T09:42:30.999Z,97546.86
2019-02-06T09:44:06.814Z,97542.98
2019-02-06T09:45:45.173Z,97538.17
2019-02-06T09:47:39.718Z,97544.02
2019-02-06T09:49:24.286Z,97537.79
2019-02-06T09:51:01.141Z,97538.76
2019-02-06T09:52:37.882Z,97534.62
2019-02-06T09:54:13.295Z,97536.12
2019-02-06T09:55:53.283Z,97537.05
2019-02-06T09:57:30.104Z,97530.73
2019-02-06T09:59:12.467Z,97534.88
2019-02-06T10:00:49.359Z,97538.34
2019-02-06T10:02:27.589Z,97545.50
2019-02-06T10:04:02.625Z,97546.05
2019-02-06T10:05:39.134Z,97544.21
2019-02-06T10:07:15.905Z,97542.52
2019-02-06T10:08:51.772Z,97538.26
2019-02-06T10:10:36.808Z,97541.54
2019-02-06T10:12:13.772Z,97543.05
2019-02-06T10:13:51.628Z,97539.61
2019-02-06T10:15:37.364Z,97539.84
2019-02-06T10:17:20.230Z,97541.58
2019-02-06T10:19:22.170Z,97537.52
2019-02-06T10:20:58.901Z,97540.19
2019-02-06T10:22:34.021Z,97540.42
2019-02-06T10:24:14.844Z,97548.33
2019-02-06T10:25:50.101Z,97544.14
2019-02-06T10:27:25.651Z,97543.18
2019-02-06T10:29:00.942Z,97547.25
2019-02-06T10:30:41.179Z,97536.79
2019-02-06T10:32:18.779Z,97544.69
2019-02-06T10:33:55.552Z,97545.70
2019-02-06T10:35:39.202Z,97547.11
2019-02-06T10:37:18.307Z,97544.59
2019-02-06T10:38:53.820Z,97538.38
2019-02-06T10:40:29.501Z,97539.53
2019-02-06T10:42:05.251Z,97533.33
2019-02-06T10:43:47.838Z,97540.66
2019-02-06T10:45:27.292Z,97545.28
2019-02-06T10:47:09.326Z,97536.02
2019-02-06T10:48:48.783Z,97538.53
2019-02-06T10:50:39.776Z,97535.34
2019-02-06T10:52:18.284Z,97541.94
2019-02-06T10:53:55.337Z,97536.46
2019-02-06T10:55:35.068Z,97538.05
2019-02-06T10:57:12.724Z,97529.29
2019-02-06T10:58:50.554Z,97526.76
2019-02-06T11:00:40.115Z,97531.16
2019-02-06T11:02:16.027Z,97530.20
2019-02-06T11:03:51.395Z,97524.32
2019-02-06T11:05:28.355Z,97517.50
2019-02-06T11:07:07.652Z,97511.42
2019-02-06T11:08:45.483Z,97507.64
2019-02-06T11:10:21.630Z,97507.81
2019-02-06T11:12:04.069Z,97502.71
2019-02-06T11:13:44.962Z,97507.06
2019-02-06T11:15:22.646Z,97504.86
2019-02-06T11:16:59.228Z,97508.86
2019-02-06T11:18:38.431Z,97494.53
2019-02-06T11:20:23.909Z,97499.31
2019-02-06T11:22:00.764Z,97498.59
2019-02-06T11:23:45.019Z,97502.22
2019-02-06T11:25:29.448Z,97492.72
2019-02-06T11:27:05.103Z,97499.09
2019-02-06T11:28:41.552Z,97494.95
2019-02-06T11:30:40.172Z,97492.11
2019-02-06T11:32:18.239Z,97482.08
2019-02-06T11:33:58.290Z,97487.41
2019-02-06T11:35:33.811Z,97481.55
2019-02-06T11:37:13.217Z,97477.69
2019-02-06T11:39:00.149Z,97478.27
2019-02-06T11:40:44.917Z,97480.05
2019-02-06T11:42:21.734Z,97481.58
2019-02-06T11:43:58.884Z,97481.58
2019-02-06T11:45:34.414Z,97481.48
2019-02-06T11:47:19.351Z,97476.87
2019-02-06T11:48:56.703Z,97477.58
2019-02-06T11:50:40.121Z,97471.42
2019-02-06T11:52:25.380Z,97465.16
2019-02-06T11:54:01.418Z,97466.25
2019-02-06T11:55:43.272Z,97463.42
2019-02-06T11:57:25.161Z,97457.03
2019-02-06T11:59:04.613Z,97461.77
2019-02-06T12:01:11.144Z,97451.84
2019-02-06T12:02:51.386Z,97457.72
2019-02-06T12:04:28.857Z,97454.77
2019-02-06T12:06:20.522Z,97452.97
2019-02-06T12:08:06.842Z,97449.26
2019-02-06T12:09:47.033Z,97448.46
2019-02-06T12:11:26.177Z,97446.98
2019-02-06T12:13:02.700Z,97447.43
2019-02-06T12:14:41.073Z,97435.16
2019-02-06T12:16:18.820Z,97440.19
2019-02-06T12:17:55.432Z,97442.73
2019-02-06T12:19:32.001Z,97443.31
2019-02-06T12:21:08.746Z,97443.20
2019-02-06T12:22:44.742Z,97441.11
2019-02-06T12:24:21.811Z,97435.28
2019-02-06T12:26:01.873Z,97430.50
2019-02-06T12:27:40.697Z,97424.81
2019-02-06T12:29:17.718Z,97423.52
2019-02-06T12:30:57.849Z,97421.70
2019-02-06T12:32:32.959Z,97417.83
2019-02-06T12:34:15.236Z,97416.59
2019-02-06T12:35:56.661Z,97419.06
2019-02-06T12:37:33.385Z,97413.16
2019-02-06T12:39:13.003Z,97411.59
2019-02-06T12:40:49.741Z,97402.28
2019-02-06T12:42:30.518Z,97405.20
2019-02-06T12:44:10.013Z,97401.73
2019-02-06T12:45:54.898Z,97396.58
2019-02-06T12:47:35.367Z,97388.64
2019-02-06T12:49:14.610Z,97386.60
2019-02-06T12:50:52.655Z,97387.30
2019-02-06T12:52:29.940Z,97382.91
2019-02-06T12:54:08.906Z,97378.15
2019-02-06T12:55:45.020Z,97379.80
2019-02-06T12:57:36.231Z,97380.65
2019-02-06T12:59:07.314Z,97381.86
2019-02-06T13:00:43.268Z,97373.11
2019-02-06T13:02:23.951Z,97364.14
2019-02-06T13:03:59.221Z,97374.69
2019-02-06T13:05:34.357Z,97367.19
2019-02-06T13:07:10.029Z,97363.86
2019-02-06T13:08:45.601Z,97365.73
2019-02-06T13:10:32.883Z,97368.27
2019-02-06T13:11:57.625Z,97367.08
2019-02-06T13:13:33.337Z,97369.36
2019-02-06T13:15:12.328Z,97358.88
2019-02-06T13:16:47.643Z,97356.27
2019-02-06T13:18:25.795Z,97357.70
2019-02-06T13:20:02.582Z,97360.69
2019-02-06T13:21:38.878Z,97362.12
2019-02-06T13:23:16.374Z,97358.63
2019-02-06T13:24:56.765Z,97360.50
2019-02-06T13:26:33.890Z,97341.40
2019-02-06T13:28:09.601Z,97351.73
2019-02-06T13:29:46.517Z,97349.00
2019-02-06T13:31:21.667Z,97343.13
2019-02-06T13:33:04.565Z,97341.61
2019-02-06T13:34:44.888Z,97348.89
2019-02-06T13:36:22.671Z,97344.72
2019-02-06T13:37:57.807Z,97332.83
2019-02-06T13:39:33.108Z,97332.33
2019-02-06T13:41:09.682Z,97339.59
2019-02-06T13:42:47.189Z,97333.45
2019-02-06T13:44:25.314Z,97327.29
2019-02-06T13:46:00.593Z,97329.08
2019-02-06T13:47:43.993Z,97321.37
2019-02-06T13:49:21.491Z,97310.81
2019-02-06T13:51:00.958Z,97310.20
2019-02-06T13:52:41.049Z,97311.22
2019-02-06T13:54:16.477Z,97308.84
2019-02-06T13:55:52.374Z,97305.91
2019-02-06T13:57:33.926Z,97306.45
2019-02-06T13:59:10.975Z,97304.95
2019-02-06T14:00:44.292Z,97300.72
2019-02-06T14:02:20.014Z,97298.30
2019-02-06T14:03:55.441Z,97301.30
2019-02-06T14:05:32.735Z,97301.16
2019-02-06T14:07:18.096Z,97295.95
2019-02-06T14:09:26.620Z,97300.30
2019-02-06T14:11:04.847Z,97302.28
2019-02-06T14:12:42.950Z,97303.09
2019-02-06T14:14:27.023Z,97301.34
2019-02-06T14:16:04.321Z,97302.83
2019-02-06T14:17:40.557Z,97305.52
2019-02-06T14:19:23.228Z,97312.42
2019-02-06T14:21:06.501Z,97309.17
2019-02-06T14:22:53.259Z,97306.16
2019-02-06T14:24:44.506Z,97310.30
2019-02-06T14:26:48.471Z,97312.76
2019-02-06T14:29:12.537Z,97311.84
2019-02-06T14:31:25.175Z,97311.94
2019-02-06T14:33:39.063Z,97313.92
2019-02-06T14:35:41.637Z,97311.54
2019-02-06T14:37:36.794Z,97302.55
2019-02-06T14:39:52.762Z,97299.89
2019-02-06T14:42:05.593Z,97295.13
2019-02-06T14:44:29.703Z,97295.17
2019-02-06T14:47:05.799Z,97288.20
2019-02-06T14:49:11.448Z,97285.94
2019-02-06T14:51:28.690Z,97286.32
2019-02-06T14:53:59.442Z,97281.94
2019-02-06T14:55:58.992Z,97272.09
2019-02-06T14:58:15.626Z,97274.01
2019-02-06T15:00:24.594Z,97272.48
2019-02-06T15:02:31.753Z,97271.13
2019-02-06T15:04:48.022Z,97267.34
2019-02-06T15:06:46.675Z,97265.77
2019-02-06T15:09:02.562Z,97269.00
2019-02-06T15:11:05.485Z,97265.83
2019-02-06T15:13:29.170Z,97266.23
2019-02-06T15:15:17.880Z,97264.22
2019-02-06T15:17:41.382Z,97264.27
2019-02-06T15:19:58.678Z,97267.39
2019-02-06T15:22:11.536Z,97258.90
2019-02-06T15:24:26.026Z,97257.52
2019-02-06T15:26:37.337Z,97247.91
2019-02-06T15:29:10.204Z,97243.02
2019-02-06T15:31:34.613Z,97246.69
2019-02-06T15:33:48.684Z,97242.27
2019-02-06T15:36:15.470Z,97238.81
2019-02-06T15:38:26.011Z,97245.27
2019-02-06T15:40:38.118Z,97249.97
2019-02-06T15:42:43.638Z,97249.64
2019-02-06T15:44:54.423Z,97252.38
2019-02-06T15:47:31.268Z,97248.89
2019-02-06T15:49:34.388Z,97254.39
2019-02-06T15:51:42.373Z,97247.63
2019-02-06T15:53:49.456Z,97252.30
2019-02-06T15:56:07.446Z,97249.06
2019-02-06T15:58:28.240Z,97248.69
2019-02-06T16:00:49.109Z,97249.08
2019-02-06T16:02:58.417Z,97248.95
2019-02-06T16:05:05.698Z,97252.70
2019-02-06T16:06:58.307Z,97254.98
2019-02-06T16:09:01.086Z,97247.89
2019-02-06T16:11:01.097Z,97249.27
2019-02-06T16:13:14.774Z,97251.45
2019-02-06T16:15:17.613Z,97247.19
2019-02-06T16:17:23.806Z,97236.48
2019-02-06T16:19:16.472Z,97237.14
2019-02-06T16:21:52.712Z,97232.34
2019-02-06T16:24:28.701Z,97236.23
2019-02-06T16:26:43.928Z,97226.96
2019-02-06T16:29:24.218Z,97222.91
2019-02-06T16:31:39.772Z,97221.80
2019-02-06T16:33:56.859Z,97220.45
2019-02-06T16:36:31.421Z,97224.17
2019-02-06T16:38:57.371Z,97218.17
2019-02-06T16:41:07.017Z,97195.75
2019-02-06T16:43:25.294Z,97197.67
2019-02-06T16:45:33.301Z,97207.80
2019-02-06T16:47:32.816Z,97217.45
2019-02-06T16:49:58.618Z,97216.12
2019-02-06T16:52:29.382Z,97219.44
2019-02-06T16:54:52.187Z,97224.47
2019-02-06T16:56:46.594Z,97217.28
2019-02-06T16:59:10.985Z,97212.49
2019-02-06T17:01:35.809Z,97215.01
2019-02-06T17:04:20.303Z,97214.27
2019-02-06T17:06:50.436Z,97215.44
2019-02-06T17:09:06.383Z,97216.59
2019-02-06T17:11:12.573Z,97215.44
2019-02-06T17:13:03.061Z,97218.53
2019-02-06T17:15:16.330Z,97207.89
2019-02-06T17:17:35.509Z,97204.61
2019-02-06T17:19:44.949Z,97205.20
2019-02-06T17:21:55.471Z,97204.81
2019-02-06T17:24:06.569Z,97195.72
2019-02-06T17:26:36.873Z,97187.99
2019-02-06T17:28:49.059Z,97193.41
2019-02-06T17:31:06.248Z,97193.64
2019-02-06T17:33:33.870Z,97193.06
2019-02-06T17:35:40.615Z,97189.97
2019-02-06T17:37:42.735Z,97199.23
2019-02-06T17:39:55.223Z,97201.75
2019-02-06T17:41:44.551Z,97199.05
2019-02-06T17:43:51.778Z,97198.28
2019-02-06T17:46:09.870Z,97194.41
2019-02-06T17:48:38.377Z,97192.48
2019-02-06T17:51:18.474Z,97199.25
2019-02-06T17:53:45.681Z,97202.17
2019-02-06T17:55:31.891Z,97206.58
2019-02-06T17:57:13.696Z,97193.05
2019-02-06T17:58:53.825Z,97191.70
2019-02-06T18:00:41.310Z,97189.77
2019-02-06T18:02:27.242Z,97176.67
2019-02-06T18:04:06.925Z,97173.16
2019-02-06T18:05:42.456Z,97177.61
2019-02-06T18:07:20.788Z,97176.48
2019-02-06T18:09:02.026Z,97179.95
2019-02-06T18:10:41.742Z,97179.57
2019-02-06T18:12:26.338Z,97171.45
2019-02-06T18:14:04.264Z,97163.14
2019-02-06T18:15:45.905Z,97162.00
2019-02-06T18:17:28.096Z,97168.21
2019-02-06T18:19:05.464Z,97172.66
2019-02-06T18:20:43.689Z,97174.74
2019-02-06T18:22:30.099Z,97175.94
2019-02-06T18:24:07.032Z,97170.14
2019-02-06T18:25:46.766Z,97170.69
2019-02-06T18:27:22.260Z,97170.88
2019-02-06T18:29:01.794Z,97173.01
2019-02-06T18:30:48.214Z,97167.41
2019-02-06T18:32:33.292Z,97156.20
2019-02-06T18:34:20.090Z,97158.91
2019-02-06T18:36:03.417Z,97160.48
2019-02-06T18:37:49.218Z,97158.36
2019-02-06T18:39:30.973Z,97154.08
2019-02-06T18:41:01.672Z,97150.21
2019-02-06T18:42:53.235Z,97150.25
2019-02-06T18:44:32.396Z,97147.34
2019-02-06T18:46:11.506Z,97140.39
2019-02-06T18:47:59.318Z,97146.97
2019-02-06T18:49:37.544Z,97148.73
2019-02-06T18:51:15.792Z,97150.47
2019-02-06T18:52:58.540Z,97149.90
2019-02-06T18:54:33.289Z,97149.70
2019-02-06T18:56:17.546Z,97150.67
2019-02-06T18:57:53.354Z,97148.73
2019-02-06T18:59:35.457Z,97149.16
2019-02-06T19:01:11.623Z,97142.75
2019-02-06T19:02:51.741Z,97146.42
2019-02-06T19:04:34.597Z,97148.38
2019-02-06T19:06:14.259Z,97144.52
2019-02-06T19:07:55.753Z,97144.13
2019-02-06T19:09:37.299Z,97147.41
2019-02-06T19:11:26.151Z,97146.06
2019-02-06T19:13:16.549Z,97147.41
2019-02-06T19:15:00.525Z,97143.94
2019-02-06T19:16:41.293Z,97133.13
2019-02-06T19:18:30.283Z,97132.16
2019-02-06T19:20:25.499Z,97133.70
2019-02-06T19:21:59.321Z,97137.02
2019-02-06T19:23:48.248Z,97133.53
2019-02-06T19:25:25.871Z,97134.89
2019-02-06T19:27:03.008Z,97126.78
2019-02-06T19:28:44.322Z,97132.96
2019-02-06T19:30:29.660Z,97131.03
2019-02-06T19:32:11.299Z,97130.03
2019-02-06T19:33:46.535Z,97132.16
2019-02-06T19:35:21.648Z,97121.19
2019-02-06T19:36:57.171Z,97125.41
2019-02-06T19:38:32.617Z,97125.98
2019-02-06T19:40:14.659Z,97118.27
2019-02-06T19:41:51.491Z,97122.70
2019-02-06T19:43:34.418Z,97111.31
2019-02-06T19:45:13.422Z,97116.88
2019-02-06T19:47:02.053Z,97120.35
2019-02-06T19:48:43.085Z,97109.54
2019-02-06T19:50:27.907Z,97100.65
2019-02-06T19:52:02.936Z,97098.33
2019-02-06T19:53:41.547Z,97096.94
2019-02-06T19:55:18.950Z,97092.50
2019-02-06T19:56:56.172Z,97096.41
2019-02-06T19:59:02.456Z,97087.52
2019-02-06T20:00:41.052Z,97090.03
2019-02-06T20:02:22.595Z,97093.55
2019-02-06T20:03:58.796Z,97094.12
2019-02-06T20:05:36.596Z,97092.55
2019-02-06T20:07:14.303Z,97096.60
2019-02-06T20:08:52.554Z,97092.35
2019-02-06T20:10:33.648Z,97093.12
2019-02-06T20:12:13.984Z,97097.21
2019-02-06T20:13:58.966Z,97094.91
2019-02-06T20:15:38.895Z,97093.55
2019-02-06T20:17:15.961Z,97089.11
2019-02-06T20:18:52.578Z,97086.41